sensor_id;sensor_type;location;lat;lon;timestamp;P1;durP1;ratioP1;P2;durP2;ratioP2
36995;SDS011;22905;50.340;10.776;2023-08-08T00:03:47;9.07;;;4.10;;
36995;SDS011;22905;50.340;10.776;2023-08-08T00:08:47;9.77;;;4.75;;
36995;SDS011;22905;50.340;10.776;2023-08-08T00:13:48;10.98;;;3.40;;
36995;SDS011;22905;50.340;10.776;2023-08-08T00:18:48;10.20;;;4.20;;
36995;SDS011;22905;50.340;10.776;2023-08-08T00:23:50;9.07;;;4.47;;
36995;SDS011;22905;50.340;10.776;2023-08-08T00:28:50;11.10;;;4.97;;
36995;SDS011;22905;50.340;10.776;2023-08-08T00:33:51;8.70;;;3.70;;
36995;SDS011;22905;50.340;10.776;2023-08-08T00:38:51;6.68;;;3.90;;
36995;SDS011;22905;50.340;10.776;2023-08-08T00:43:51;10.07;;;4.87;;
36995;SDS011;22905;50.340;10.776;2023-08-08T00:48:51;9.37;;;4.00;;
36995;SDS011;22905;50.340;10.776;2023-08-08T00:53:52;8.85;;;4.13;;
36995;SDS011;22905;50.340;10.776;2023-08-08T00:58:53;11.20;;;4.07;;
36995;SDS011;22905;50.340;10.776;2023-08-08T01:03:53;6.57;;;3.63;;
36995;SDS011;22905;50.340;10.776;2023-08-08T01:09:12;6.77;;;3.47;;
36995;SDS011;22905;50.340;10.776;2023-08-08T01:14:14;16.45;;;4.50;;
36995;SDS011;22905;50.340;10.776;2023-08-08T01:19:17;6.90;;;4.10;;
36995;SDS011;22905;50.340;10.776;2023-08-08T01:24:24;8.80;;;4.20;;
36995;SDS011;22905;50.340;10.776;2023-08-08T01:29:29;7.10;;;3.85;;
36995;SDS011;22905;50.340;10.776;2023-08-08T01:34:29;7.17;;;4.10;;
36995;SDS011;22905;50.340;10.776;2023-08-08T01:39:30;8.90;;;4.60;;
36995;SDS011;22905;50.340;10.776;2023-08-08T01:44:30;13.25;;;4.10;;
36995;SDS011;22905;50.340;10.776;2023-08-08T01:49:32;7.43;;;4.05;;
36995;SDS011;22905;50.340;10.776;2023-08-08T01:54:32;8.37;;;4.30;;
36995;SDS011;22905;50.340;10.776;2023-08-08T01:59:33;6.28;;;3.63;;
36995;SDS011;22905;50.340;10.776;2023-08-08T02:04:33;8.13;;;4.43;;
36995;SDS011;22905;50.340;10.776;2023-08-08T02:09:33;7.53;;;4.43;;
36995;SDS011;22905;50.340;10.776;2023-08-08T02:14:34;13.20;;;5.35;;
36995;SDS011;22905;50.340;10.776;2023-08-08T02:19:34;7.40;;;4.10;;
36995;SDS011;22905;50.340;10.776;2023-08-08T02:24:34;9.02;;;3.67;;
36995;SDS011;22905;50.340;10.776;2023-08-08T02:29:34;8.15;;;4.32;;
36995;SDS011;22905;50.340;10.776;2023-08-08T02:34:35;12.27;;;4.97;;
36995;SDS011;22905;50.340;10.776;2023-08-08T02:39:35;8.60;;;4.57;;
36995;SDS011;22905;50.340;10.776;2023-08-08T02:44:35;7.95;;;4.30;;
36995;SDS011;22905;50.340;10.776;2023-08-08T02:49:36;7.27;;;4.27;;
36995;SDS011;22905;50.340;10.776;2023-08-08T02:54:36;7.07;;;4.17;;
36995;SDS011;22905;50.340;10.776;2023-08-08T02:59:36;10.88;;;3.97;;
36995;SDS011;22905;50.340;10.776;2023-08-08T03:04:37;6.72;;;3.83;;
36995;SDS011;22905;50.340;10.776;2023-08-08T03:09:37;11.10;;;4.32;;
36995;SDS011;22905;50.340;10.776;2023-08-08T03:14:38;8.20;;;4.77;;
36995;SDS011;22905;50.340;10.776;2023-08-08T03:19:38;9.23;;;4.37;;
36995;SDS011;22905;50.340;10.776;2023-08-08T03:24:38;14.77;;;4.97;;
36995;SDS011;22905;50.340;10.776;2023-08-08T03:29:39;8.90;;;4.85;;
36995;SDS011;22905;50.340;10.776;2023-08-08T03:34:39;12.30;;;5.38;;
36995;SDS011;22905;50.340;10.776;2023-08-08T03:39:39;12.18;;;4.50;;
36995;SDS011;22905;50.340;10.776;2023-08-08T03:44:40;8.35;;;4.32;;
36995;SDS011;22905;50.340;10.776;2023-08-08T03:49:40;14.13;;;6.95;;
36995;SDS011;22905;50.340;10.776;2023-08-08T03:54:41;11.93;;;6.77;;
36995;SDS011;22905;50.340;10.776;2023-08-08T03:59:41;11.95;;;5.85;;
36995;SDS011;22905;50.340;10.776;2023-08-08T04:04:41;8.93;;;4.07;;
36995;SDS011;22905;50.340;10.776;2023-08-08T04:09:41;8.03;;;4.37;;
36995;SDS011;22905;50.340;10.776;2023-08-08T04:14:42;13.03;;;4.60;;
36995;SDS011;22905;50.340;10.776;2023-08-08T04:19:42;5.37;;;4.03;;
36995;SDS011;22905;50.340;10.776;2023-08-08T04:24:43;12.00;;;4.60;;
36995;SDS011;22905;50.340;10.776;2023-08-08T04:29:43;7.38;;;4.03;;
36995;SDS011;22905;50.340;10.776;2023-08-08T04:34:43;7.97;;;4.60;;
36995;SDS011;22905;50.340;10.776;2023-08-08T04:39:44;10.47;;;4.20;;
36995;SDS011;22905;50.340;10.776;2023-08-08T04:44:44;13.80;;;4.72;;
36995;SDS011;22905;50.340;10.776;2023-08-08T04:49:44;6.82;;;4.55;;
36995;SDS011;22905;50.340;10.776;2023-08-08T04:54:45;11.10;;;5.43;;
36995;SDS011;22905;50.340;10.776;2023-08-08T04:59:45;7.25;;;4.85;;
36995;SDS011;22905;50.340;10.776;2023-08-08T05:04:46;10.27;;;4.85;;
36995;SDS011;22905;50.340;10.776;2023-08-08T05:09:46;10.33;;;4.60;;
36995;SDS011;22905;50.340;10.776;2023-08-08T05:14:46;12.13;;;4.80;;
36995;SDS011;22905;50.340;10.776;2023-08-08T05:19:47;9.40;;;4.78;;
36995;SDS011;22905;50.340;10.776;2023-08-08T05:24:47;8.70;;;4.32;;
36995;SDS011;22905;50.340;10.776;2023-08-08T05:29:47;5.60;;;3.80;;
36995;SDS011;22905;50.340;10.776;2023-08-08T05:34:49;9.60;;;4.82;;
36995;SDS011;22905;50.340;10.776;2023-08-08T05:39:50;10.35;;;4.00;;
36995;SDS011;22905;50.340;10.776;2023-08-08T05:44:52;10.68;;;4.88;;
36995;SDS011;22905;50.340;10.776;2023-08-08T05:49:52;8.15;;;5.35;;
36995;SDS011;22905;50.340;10.776;2023-08-08T05:54:52;9.77;;;4.60;;
36995;SDS011;22905;50.340;10.776;2023-08-08T05:59:53;10.57;;;5.28;;
36995;SDS011;22905;50.340;10.776;2023-08-08T06:04:53;7.37;;;4.50;;
36995;SDS011;22905;50.340;10.776;2023-08-08T06:09:53;7.25;;;3.85;;
36995;SDS011;22905;50.340;10.776;2023-08-08T06:14:54;5.20;;;3.55;;
36995;SDS011;22905;50.340;10.776;2023-08-08T06:19:54;7.13;;;3.67;;
36995;SDS011;22905;50.340;10.776;2023-08-08T06:24:56;7.00;;;3.17;;
36995;SDS011;22905;50.340;10.776;2023-08-08T06:29:56;4.27;;;3.27;;
36995;SDS011;22905;50.340;10.776;2023-08-08T06:34:57;4.85;;;2.65;;
36995;SDS011;22905;50.340;10.776;2023-08-08T06:39:57;13.82;;;3.47;;
36995;SDS011;22905;50.340;10.776;2023-08-08T06:44:57;5.07;;;3.53;;
36995;SDS011;22905;50.340;10.776;2023-08-08T06:49:58;6.22;;;2.53;;
36995;SDS011;22905;50.340;10.776;2023-08-08T06:54:58;3.92;;;2.58;;
36995;SDS011;22905;50.340;10.776;2023-08-08T06:59:59;3.43;;;2.27;;
36995;SDS011;22905;50.340;10.776;2023-08-08T07:04:59;8.63;;;1.85;;
36995;SDS011;22905;50.340;10.776;2023-08-08T07:10:00;3.90;;;2.83;;
36995;SDS011;22905;50.340;10.776;2023-08-08T07:15:01;3.90;;;2.38;;
36995;SDS011;22905;50.340;10.776;2023-08-08T07:20:01;5.82;;;2.35;;
36995;SDS011;22905;50.340;10.776;2023-08-08T07:25:02;4.40;;;1.63;;
36995;SDS011;22905;50.340;10.776;2023-08-08T07:30:04;4.05;;;1.90;;
36995;SDS011;22905;50.340;10.776;2023-08-08T07:35:06;2.42;;;1.98;;
36995;SDS011;22905;50.340;10.776;2023-08-08T07:40:15;12.07;;;2.20;;
36995;SDS011;22905;50.340;10.776;2023-08-08T07:45:17;4.32;;;1.88;;
36995;SDS011;22905;50.340;10.776;2023-08-08T07:50:18;3.63;;;1.98;;
36995;SDS011;22905;50.340;10.776;2023-08-08T07:55:18;2.70;;;1.95;;
36995;SDS011;22905;50.340;10.776;2023-08-08T08:00:18;3.17;;;1.58;;
36995;SDS011;22905;50.340;10.776;2023-08-08T08:05:20;3.30;;;2.00;;
36995;SDS011;22905;50.340;10.776;2023-08-08T08:10:20;6.57;;;2.50;;
36995;SDS011;22905;50.340;10.776;2023-08-08T08:15:20;5.43;;;2.03;;
36995;SDS011;22905;50.340;10.776;2023-08-08T08:20:21;3.65;;;2.22;;
36995;SDS011;22905;50.340;10.776;2023-08-08T08:25:21;5.80;;;1.67;;
36995;SDS011;22905;50.340;10.776;2023-08-08T08:30:22;2.63;;;1.87;;
36995;SDS011;22905;50.340;10.776;2023-08-08T08:35:25;5.03;;;1.40;;
36995;SDS011;22905;50.340;10.776;2023-08-08T08:40:26;4.13;;;1.65;;
36995;SDS011;22905;50.340;10.776;2023-08-08T08:45:27;2.60;;;1.55;;
36995;SDS011;22905;50.340;10.776;2023-08-08T08:50:28;3.30;;;1.47;;
36995;SDS011;22905;50.340;10.776;2023-08-08T08:55:30;2.83;;;1.65;;
36995;SDS011;22905;50.340;10.776;2023-08-08T09:00:31;3.00;;;1.87;;
36995;SDS011;22905;50.340;10.776;2023-08-08T09:05:31;2.67;;;1.33;;
36995;SDS011;22905;50.340;10.776;2023-08-08T09:10:33;1.90;;;1.43;;
36995;SDS011;22905;50.340;10.776;2023-08-08T09:15:35;2.83;;;1.67;;
36995;SDS011;22905;50.340;10.776;2023-08-08T09:20:35;5.47;;;1.20;;
36995;SDS011;22905;50.340;10.776;2023-08-08T09:25:35;6.33;;;1.77;;
36995;SDS011;22905;50.340;10.776;2023-08-08T09:30:36;2.47;;;1.33;;
36995;SDS011;22905;50.340;10.776;2023-08-08T09:35:37;3.90;;;1.30;;
36995;SDS011;22905;50.340;10.776;2023-08-08T09:40:39;4.05;;;1.42;;
36995;SDS011;22905;50.340;10.776;2023-08-08T09:45:39;1.85;;;1.38;;
36995;SDS011;22905;50.340;10.776;2023-08-08T09:55:42;4.60;;;1.52;;
36995;SDS011;22905;50.340;10.776;2023-08-08T10:00:42;2.90;;;1.35;;
36995;SDS011;22905;50.340;10.776;2023-08-08T10:05:43;3.15;;;1.35;;
36995;SDS011;22905;50.340;10.776;2023-08-08T10:10:45;2.00;;;1.65;;
36995;SDS011;22905;50.340;10.776;2023-08-08T10:15:47;5.75;;;1.38;;
36995;SDS011;22905;50.340;10.776;2023-08-08T10:20:47;2.53;;;1.30;;
36995;SDS011;22905;50.340;10.776;2023-08-08T10:25:52;1.85;;;1.30;;
36995;SDS011;22905;50.340;10.776;2023-08-08T10:30:56;5.18;;;1.60;;
36995;SDS011;22905;50.340;10.776;2023-08-08T10:36:02;2.10;;;1.30;;
36995;SDS011;22905;50.340;10.776;2023-08-08T10:41:04;16.92;;;12.05;;
36995;SDS011;22905;50.340;10.776;2023-08-08T10:46:04;2.08;;;1.35;;
36995;SDS011;22905;50.340;10.776;2023-08-08T10:51:06;3.23;;;1.60;;
36995;SDS011;22905;50.340;10.776;2023-08-08T11:01:11;2.40;;;1.40;;
36995;SDS011;22905;50.340;10.776;2023-08-08T11:06:12;5.95;;;1.92;;
36995;SDS011;22905;50.340;10.776;2023-08-08T11:11:13;2.88;;;1.45;;
36995;SDS011;22905;50.340;10.776;2023-08-08T11:16:14;2.67;;;1.10;;
36995;SDS011;22905;50.340;10.776;2023-08-08T11:21:14;4.00;;;1.48;;
36995;SDS011;22905;50.340;10.776;2023-08-08T11:26:16;4.47;;;1.52;;
36995;SDS011;22905;50.340;10.776;2023-08-08T11:31:18;2.45;;;1.42;;
36995;SDS011;22905;50.340;10.776;2023-08-08T11:41:22;3.33;;;1.60;;
36995;SDS011;22905;50.340;10.776;2023-08-08T11:46:23;6.03;;;1.30;;
36995;SDS011;22905;50.340;10.776;2023-08-08T11:51:24;3.38;;;1.70;;
36995;SDS011;22905;50.340;10.776;2023-08-08T11:56:25;4.77;;;1.40;;
36995;SDS011;22905;50.340;10.776;2023-08-08T12:01:25;4.18;;;3.15;;
36995;SDS011;22905;50.340;10.776;2023-08-08T12:06:29;4.63;;;1.40;;
36995;SDS011;22905;50.340;10.776;2023-08-08T12:11:29;4.30;;;1.40;;
36995;SDS011;22905;50.340;10.776;2023-08-08T12:16:30;2.50;;;1.40;;
36995;SDS011;22905;50.340;10.776;2023-08-08T12:21:31;2.50;;;1.20;;
36995;SDS011;22905;50.340;10.776;2023-08-08T12:26:33;1.88;;;1.38;;
36995;SDS011;22905;50.340;10.776;2023-08-08T12:31:33;4.35;;;1.77;;
36995;SDS011;22905;50.340;10.776;2023-08-08T12:36:41;3.40;;;1.73;;
36995;SDS011;22905;50.340;10.776;2023-08-08T12:41:41;3.10;;;1.35;;
36995;SDS011;22905;50.340;10.776;2023-08-08T12:46:42;3.08;;;1.40;;
36995;SDS011;22905;50.340;10.776;2023-08-08T12:51:42;2.35;;;1.45;;
36995;SDS011;22905;50.340;10.776;2023-08-08T12:56:42;5.85;;;1.40;;
36995;SDS011;22905;50.340;10.776;2023-08-08T13:01:43;6.30;;;4.03;;
36995;SDS011;22905;50.340;10.776;2023-08-08T13:06:43;4.68;;;1.52;;
36995;SDS011;22905;50.340;10.776;2023-08-08T13:11:44;3.28;;;1.88;;
36995;SDS011;22905;50.340;10.776;2023-08-08T13:16:44;3.67;;;1.48;;
36995;SDS011;22905;50.340;10.776;2023-08-08T13:21:45;3.90;;;1.60;;
36995;SDS011;22905;50.340;10.776;2023-08-08T13:26:46;2.65;;;1.48;;
36995;SDS011;22905;50.340;10.776;2023-08-08T13:31:46;3.67;;;1.45;;
36995;SDS011;22905;50.340;10.776;2023-08-08T13:36:47;2.10;;;1.30;;
36995;SDS011;22905;50.340;10.776;2023-08-08T13:41:47;3.88;;;1.50;;
36995;SDS011;22905;50.340;10.776;2023-08-08T13:46:47;4.75;;;1.42;;
36995;SDS011;22905;50.340;10.776;2023-08-08T13:51:48;5.20;;;1.70;;
36995;SDS011;22905;50.340;10.776;2023-08-08T13:56:48;3.63;;;1.08;;
36995;SDS011;22905;50.340;10.776;2023-08-08T14:01:48;2.78;;;1.70;;
36995;SDS011;22905;50.340;10.776;2023-08-08T14:06:49;3.58;;;1.92;;
36995;SDS011;22905;50.340;10.776;2023-08-08T14:11:49;2.40;;;1.60;;
36995;SDS011;22905;50.340;10.776;2023-08-08T14:16:49;3.08;;;1.38;;
36995;SDS011;22905;50.340;10.776;2023-08-08T14:21:50;3.87;;;1.23;;
36995;SDS011;22905;50.340;10.776;2023-08-08T14:26:50;3.05;;;1.40;;
36995;SDS011;22905;50.340;10.776;2023-08-08T14:31:51;4.25;;;1.77;;
36995;SDS011;22905;50.340;10.776;2023-08-08T14:36:51;3.90;;;2.03;;
36995;SDS011;22905;50.340;10.776;2023-08-08T14:41:51;2.60;;;1.48;;
36995;SDS011;22905;50.340;10.776;2023-08-08T14:46:51;4.10;;;1.70;;
36995;SDS011;22905;50.340;10.776;2023-08-08T14:51:52;8.73;;;1.70;;
36995;SDS011;22905;50.340;10.776;2023-08-08T14:56:52;5.57;;;1.37;;
36995;SDS011;22905;50.340;10.776;2023-08-08T15:01:52;2.17;;;1.40;;
36995;SDS011;22905;50.340;10.776;2023-08-08T15:06:53;2.30;;;1.30;;
36995;SDS011;22905;50.340;10.776;2023-08-08T15:11:53;5.30;;;1.67;;
36995;SDS011;22905;50.340;10.776;2023-08-08T15:16:53;2.30;;;1.47;;
36995;SDS011;22905;50.340;10.776;2023-08-08T15:21:54;3.42;;;1.75;;
36995;SDS011;22905;50.340;10.776;2023-08-08T15:26:55;5.53;;;1.50;;
36995;SDS011;22905;50.340;10.776;2023-08-08T15:31:55;2.60;;;1.37;;
36995;SDS011;22905;50.340;10.776;2023-08-08T15:36:55;3.08;;;1.50;;
36995;SDS011;22905;50.340;10.776;2023-08-08T15:41:58;4.43;;;1.60;;
36995;SDS011;22905;50.340;10.776;2023-08-08T15:46:58;7.60;;;1.70;;
36995;SDS011;22905;50.340;10.776;2023-08-08T15:51:59;2.83;;;1.33;;
36995;SDS011;22905;50.340;10.776;2023-08-08T15:56:59;5.07;;;1.63;;
36995;SDS011;22905;50.340;10.776;2023-08-08T16:02:01;5.53;;;1.70;;
36995;SDS011;22905;50.340;10.776;2023-08-08T16:07:01;3.03;;;1.75;;
36995;SDS011;22905;50.340;10.776;2023-08-08T16:12:02;5.93;;;2.60;;
36995;SDS011;22905;50.340;10.776;2023-08-08T16:17:02;2.95;;;1.70;;
36995;SDS011;22905;50.340;10.776;2023-08-08T16:22:02;3.17;;;1.63;;
36995;SDS011;22905;50.340;10.776;2023-08-08T16:27:04;4.87;;;1.70;;
36995;SDS011;22905;50.340;10.776;2023-08-08T16:32:05;3.97;;;1.98;;
36995;SDS011;22905;50.340;10.776;2023-08-08T16:37:05;4.67;;;1.70;;
36995;SDS011;22905;50.340;10.776;2023-08-08T16:42:07;4.00;;;1.80;;
36995;SDS011;22905;50.340;10.776;2023-08-08T16:47:07;6.47;;;2.27;;
36995;SDS011;22905;50.340;10.776;2023-08-08T16:52:08;9.88;;;3.78;;
36995;SDS011;22905;50.340;10.776;2023-08-08T16:57:09;4.15;;;1.88;;
36995;SDS011;22905;50.340;10.776;2023-08-08T17:02:11;3.83;;;1.93;;
36995;SDS011;22905;50.340;10.776;2023-08-08T17:07:11;3.53;;;1.57;;
36995;SDS011;22905;50.340;10.776;2023-08-08T17:12:11;3.13;;;1.80;;
36995;SDS011;22905;50.340;10.776;2023-08-08T17:17:12;3.80;;;2.10;;
36995;SDS011;22905;50.340;10.776;2023-08-08T17:22:12;4.88;;;2.20;;
36995;SDS011;22905;50.340;10.776;2023-08-08T17:27:13;6.10;;;2.03;;
36995;SDS011;22905;50.340;10.776;2023-08-08T17:32:13;5.73;;;1.80;;
36995;SDS011;22905;50.340;10.776;2023-08-08T17:37:14;3.25;;;1.90;;
36995;SDS011;22905;50.340;10.776;2023-08-08T17:42:15;3.63;;;2.03;;
36995;SDS011;22905;50.340;10.776;2023-08-08T17:47:16;4.10;;;2.13;;
36995;SDS011;22905;50.340;10.776;2023-08-08T17:52:17;2.45;;;1.30;;
36995;SDS011;22905;50.340;10.776;2023-08-08T17:57:17;7.05;;;2.08;;
36995;SDS011;22905;50.340;10.776;2023-08-08T18:02:18;6.32;;;2.63;;
36995;SDS011;22905;50.340;10.776;2023-08-08T18:07:18;6.05;;;1.85;;
36995;SDS011;22905;50.340;10.776;2023-08-08T18:12:21;6.43;;;1.67;;
36995;SDS011;22905;50.340;10.776;2023-08-08T18:17:22;6.20;;;1.92;;
36995;SDS011;22905;50.340;10.776;2023-08-08T18:22:22;5.30;;;1.67;;
36995;SDS011;22905;50.340;10.776;2023-08-08T18:27:23;3.53;;;1.80;;
36995;SDS011;22905;50.340;10.776;2023-08-08T18:32:24;6.07;;;4.40;;
36995;SDS011;22905;50.340;10.776;2023-08-08T18:37:25;11.15;;;4.35;;
36995;SDS011;22905;50.340;10.776;2023-08-08T18:42:26;9.57;;;3.57;;
36995;SDS011;22905;50.340;10.776;2023-08-08T18:47:27;6.63;;;2.08;;
36995;SDS011;22905;50.340;10.776;2023-08-08T18:52:28;3.53;;;2.20;;
36995;SDS011;22905;50.340;10.776;2023-08-08T18:57:28;6.32;;;1.85;;
36995;SDS011;22905;50.340;10.776;2023-08-08T19:02:29;6.15;;;2.67;;
36995;SDS011;22905;50.340;10.776;2023-08-08T19:07:29;8.40;;;1.88;;
36995;SDS011;22905;50.340;10.776;2023-08-08T19:12:30;8.15;;;2.88;;
36995;SDS011;22905;50.340;10.776;2023-08-08T19:17:30;6.20;;;2.00;;
36995;SDS011;22905;50.340;10.776;2023-08-08T19:22:30;5.28;;;2.38;;
36995;SDS011;22905;50.340;10.776;2023-08-08T19:27:31;2.92;;;2.10;;
36995;SDS011;22905;50.340;10.776;2023-08-08T19:32:32;7.22;;;2.45;;
36995;SDS011;22905;50.340;10.776;2023-08-08T19:37:32;5.55;;;2.50;;
36995;SDS011;22905;50.340;10.776;2023-08-08T19:42:33;14.27;;;2.38;;
36995;SDS011;22905;50.340;10.776;2023-08-08T19:47:33;4.55;;;2.35;;
36995;SDS011;22905;50.340;10.776;2023-08-08T19:52:33;4.55;;;2.83;;
36995;SDS011;22905;50.340;10.776;2023-08-08T19:57:35;7.57;;;1.67;;
36995;SDS011;22905;50.340;10.776;2023-08-08T20:02:35;2.55;;;1.92;;
36995;SDS011;22905;50.340;10.776;2023-08-08T20:07:35;4.72;;;1.95;;
36995;SDS011;22905;50.340;10.776;2023-08-08T20:12:37;3.78;;;2.38;;
36995;SDS011;22905;50.340;10.776;2023-08-08T20:17:37;5.07;;;2.28;;
36995;SDS011;22905;50.340;10.776;2023-08-08T20:22:39;4.82;;;2.30;;
36995;SDS011;22905;50.340;10.776;2023-08-08T20:27:40;5.05;;;2.33;;
36995;SDS011;22905;50.340;10.776;2023-08-08T20:32:40;3.28;;;2.25;;
36995;SDS011;22905;50.340;10.776;2023-08-08T20:37:41;3.65;;;2.75;;
36995;SDS011;22905;50.340;10.776;2023-08-08T20:42:41;5.32;;;2.75;;
36995;SDS011;22905;50.340;10.776;2023-08-08T20:47:42;7.60;;;2.88;;
36995;SDS011;22905;50.340;10.776;2023-08-08T20:52:42;7.28;;;2.65;;
36995;SDS011;22905;50.340;10.776;2023-08-08T20:57:43;6.95;;;3.47;;
36995;SDS011;22905;50.340;10.776;2023-08-08T21:02:44;8.90;;;3.47;;
36995;SDS011;22905;50.340;10.776;2023-08-08T21:07:44;13.90;;;5.10;;
36995;SDS011;22905;50.340;10.776;2023-08-08T21:12:44;13.43;;;7.25;;
36995;SDS011;22905;50.340;10.776;2023-08-08T21:17:45;6.67;;;3.60;;
36995;SDS011;22905;50.340;10.776;2023-08-08T21:22:46;6.35;;;2.53;;
36995;SDS011;22905;50.340;10.776;2023-08-08T21:27:46;7.30;;;2.17;;
36995;SDS011;22905;50.340;10.776;2023-08-08T21:32:46;6.60;;;2.80;;
36995;SDS011;22905;50.340;10.776;2023-08-08T21:37:47;7.13;;;3.10;;
36995;SDS011;22905;50.340;10.776;2023-08-08T21:42:47;5.57;;;2.03;;
36995;SDS011;22905;50.340;10.776;2023-08-08T21:47:47;4.85;;;2.50;;
36995;SDS011;22905;50.340;10.776;2023-08-08T21:52:47;6.78;;;2.42;;
36995;SDS011;22905;50.340;10.776;2023-08-08T21:57:48;8.30;;;3.23;;
36995;SDS011;22905;50.340;10.776;2023-08-08T22:02:48;5.10;;;2.83;;
36995;SDS011;22905;50.340;10.776;2023-08-08T22:07:49;3.42;;;2.40;;
36995;SDS011;22905;50.340;10.776;2023-08-08T22:12:49;6.83;;;2.87;;
36995;SDS011;22905;50.340;10.776;2023-08-08T22:17:54;7.40;;;4.05;;
36995;SDS011;22905;50.340;10.776;2023-08-08T22:22:54;15.77;;;3.75;;
36995;SDS011;22905;50.340;10.776;2023-08-08T22:27:55;7.03;;;2.90;;
36995;SDS011;22905;50.340;10.776;2023-08-08T22:32:55;6.30;;;3.10;;
36995;SDS011;22905;50.340;10.776;2023-08-08T22:37:55;7.97;;;3.80;;
36995;SDS011;22905;50.340;10.776;2023-08-08T22:42:55;5.05;;;3.33;;
36995;SDS011;22905;50.340;10.776;2023-08-08T22:47:56;8.97;;;2.80;;
36995;SDS011;22905;50.340;10.776;2023-08-08T22:52:56;4.60;;;2.73;;
36995;SDS011;22905;50.340;10.776;2023-08-08T22:57:56;5.78;;;2.90;;
36995;SDS011;22905;50.340;10.776;2023-08-08T23:02:57;5.43;;;2.83;;
36995;SDS011;22905;50.340;10.776;2023-08-08T23:07:57;6.45;;;3.25;;
36995;SDS011;22905;50.340;10.776;2023-08-08T23:12:58;8.68;;;3.95;;
36995;SDS011;22905;50.340;10.776;2023-08-08T23:17:58;10.97;;;4.20;;
36995;SDS011;22905;50.340;10.776;2023-08-08T23:22:58;7.20;;;2.90;;
36995;SDS011;22905;50.340;10.776;2023-08-08T23:27:59;12.02;;;5.28;;
36995;SDS011;22905;50.340;10.776;2023-08-08T23:32:59;10.27;;;4.13;;
36995;SDS011;22905;50.340;10.776;2023-08-08T23:37:59;9.90;;;3.22;;
36995;SDS011;22905;50.340;10.776;2023-08-08T23:43:00;8.18;;;3.67;;
36995;SDS011;22905;50.340;10.776;2023-08-08T23:48:00;14.87;;;3.63;;
36995;SDS011;22905;50.340;10.776;2023-08-08T23:53:01;11.25;;;3.78;;
36995;SDS011;22905;50.340;10.776;2023-08-08T23:58:01;7.70;;;3.63;;
